Time;durP1;ratioP1;P1;durP2;ratioP2;P2;SDS_P1;SDS_P2;PMS_P1;PMS_P2;Temp;Humidity;BMP_temperature;BMP_pressure;BME280_temperature;BME280_humidity;BME280_pressure;Samples;Min_cycle;Max_cycle;Signal;HPM_P1;HPM_P2
2022/04/19 00:00:44;;;;;;;28.85;12.93;;;;;;;1.98;73.97;97591.84;1748037;81;21004;-56
2022/04/19 00:03:11;;;;;;;32.70;15.70;;;;;;;1.88;74.00;97589.45;1747541;81;21035;-57
2022/04/19 00:05:38;;;;;;;25.02;13.72;;;;;;;1.87;76.76;97585.16;1748821;81;21000;-56
2022/04/19 00:08:05;;;;;;;26.25;13.62;;;;;;;1.95;74.66;97579.45;1764875;81;21075;-57
2022/04/19 00:10:32;;;;;;;24.60;13.25;;;;;;;2.02;73.59;97575.32;1764587;81;22324;-56
2022/04/19 00:12:59;;;;;;;32.60;15.80;;;;;;;1.99;73.63;97584.63;1761660;81;21027;-57
2022/04/19 00:15:29;;;;;;;31.70;17.15;;;;;;;1.94;75.74;97579.98;1738920;82;21027;-57
2022/04/19 00:17:55;;;;;;;;;;;;;;;1.93;77.35;97578.88;1754896;81;21437;-56
2022/04/19 00:20:22;;;;;;;36.25;19.05;;;;;;;2.00;76.14;97575.56;1752699;81;20170;-56
2022/04/19 00:22:51;;;;;;;35.90;19.42;;;;;;;2.08;74.31;97578.40;1752357;81;21532;-56
2022/04/19 00:25:17;;;;;;;44.70;20.00;;;;;;;2.16;73.82;97576.70;1752659;81;26180;-56
2022/04/19 00:27:43;;;;;;;46.77;25.00;;;;;;;2.28;73.22;97580.14;1752509;81;21004;-56
2022/04/19 00:30:10;;;;;;;78.47;30.62;;;;;;;2.34;72.92;97575.71;1750009;81;21547;-57
2022/04/19 00:32:36;;;;;;;56.83;27.37;;;;;;;2.39;72.73;97574.45;1752441;81;21484;-57
2022/04/19 00:35:05;;;;;;;41.63;20.55;;;;;;;2.40;72.56;97572.09;1752327;81;20982;-57
2022/04/19 00:37:31;;;;;;;40.10;21.23;;;;;;;2.40;75.40;97570.76;1757275;81;21286;-56
2022/04/19 00:39:58;;;;;;;57.03;27.80;;;;;;;2.41;75.07;97569.18;1752315;81;21003;-57
2022/04/19 00:42:27;;;;;;;58.08;26.42;;;;;;;2.47;73.91;97568.20;1752786;81;20996;-57
2022/04/19 00:44:55;;;;;;;60.23;28.17;;;;;;;2.52;72.75;97571.52;1756075;79;21018;-56
2022/04/19 00:47:21;;;;;;;48.78;24.40;;;;;;;2.57;72.60;97574.30;1748596;81;21682;-56
2022/04/19 00:49:47;;;;;;;68.22;29.67;;;;;;;2.65;72.37;97570.40;1758925;81;20924;-57
2022/04/19 00:52:13;;;;;;;45.35;22.13;;;;;;;2.72;71.79;97564.38;1755954;81;21008;-57
2022/04/19 00:54:39;;;;;;;60.20;25.52;;;;;;;2.69;71.86;97554.17;1752325;81;20987;-57
2022/04/19 00:57:05;;;;;;;41.15;20.62;;;;;;;2.72;71.78;97555.02;1752554;81;21016;-57
2022/04/19 00:59:32;;;;;;;48.13;21.85;;;;;;;2.76;71.33;97552.16;1724695;81;21538;-56
2022/04/19 01:01:58;;;;;;;41.65;20.57;;;;;;;2.81;71.06;97549.56;1763099;81;20976;-57
2022/04/19 01:04:24;;;;;;;42.48;22.40;;;;;;;2.77;71.02;97545.23;1742909;81;20967;-56
2022/04/19 01:06:50;;;;;;;43.78;21.93;;;;;;;2.80;71.05;97554.09;1738615;81;21058;-56
2022/04/19 01:09:16;;;;;;;42.60;23.00;;;;;;;2.83;72.59;97551.48;1749107;81;20992;-56
2022/04/19 01:14:27;;;;;;;45.38;21.73;;;;;;;2.87;71.34;97543.78;1752064;81;21060;-57
2022/04/19 01:16:53;;;;;;;37.08;19.10;;;;;;;2.83;71.35;97546.13;1762575;81;21003;-56
2022/04/19 01:19:19;;;;;;;42.93;19.05;;;;;;;2.82;71.82;97552.55;1734311;81;21417;-56
2022/04/19 01:21:49;;;;;;;47.73;20.88;;;;;;;2.82;72.66;97555.22;1700542;82;20885;-56
2022/04/19 01:24:18;;;;;;;41.75;18.62;;;;;;;2.82;71.46;97539.97;1758413;79;22035;-56
2022/04/19 01:26:45;;;;;;;28.47;17.77;;;;;;;2.72;71.43;97546.46;1737356;81;21019;-56
2022/04/19 01:29:11;;;;;;;46.60;23.70;;;;;;;2.60;72.04;97534.20;1744387;81;22043;-56
2022/04/19 01:31:41;;;;;;;43.83;21.37;;;;;;;2.53;72.42;97537.03;1744491;81;21003;-56
2022/04/19 01:34:07;;;;;;;34.67;17.70;;;;;;;2.44;74.30;97534.45;1752365;81;21008;-57
2022/04/19 01:36:37;;;;;;;31.75;15.68;;;;;;;2.44;74.99;97538.46;1753117;81;21572;-57
2022/04/19 01:39:06;;;;;;;32.42;16.45;;;;;;;2.47;74.44;97539.31;1756894;81;21444;-56
2022/04/19 01:41:33;;;;;;;36.05;17.15;;;;;;;2.48;74.93;97541.77;1752170;81;21071;-57
2022/04/19 01:43:59;;;;;;;30.82;15.38;;;;;;;2.52;74.17;97533.54;1752420;81;21067;-56
2022/04/19 01:46:31;;;;;;;44.25;25.10;;;;;;;2.54;73.97;97531.43;1752608;81;21072;-56
2022/04/19 01:48:57;;;;;;;36.17;16.52;;;;;;;2.58;72.72;97534.45;1762908;79;21625;-56
2022/04/19 01:51:24;;;;;;;30.35;14.90;;;;;;;2.62;72.40;97531.57;1752460;81;20968;-57
2022/04/19 01:53:51;;;;;;;66.00;24.02;;;;;;;2.64;72.35;97526.78;1762923;79;21160;-57
2022/04/19 01:56:17;;;;;;;30.60;16.93;;;;;;;2.64;72.01;97529.98;1767159;81;21004;-56
2022/04/19 01:58:43;;;;;;;32.75;18.40;;;;;;;2.69;71.81;97529.56;1762153;79;20987;-56
2022/04/19 02:01:09;;;;;;;34.63;17.98;;;;;;;2.73;71.60;97528.54;1739086;81;21716;-56
2022/04/19 02:03:35;;;;;;;35.73;16.45;;;;;;;2.77;71.63;97535.86;1738146;81;21526;-56
2022/04/19 02:06:04;;;;;;;43.28;22.10;;;;;;;2.83;71.17;97528.74;1744765;81;21055;-57
2022/04/19 02:08:30;;;;;;;34.92;16.32;;;;;;;2.83;71.01;97528.22;1769415;79;21450;-56
2022/04/19 02:10:56;;;;;;;37.13;17.62;;;;;;;2.80;71.07;97528.67;1766915;81;20905;-57
2022/04/19 02:13:21;;;;;;;34.55;16.77;;;;;;;2.76;71.18;97524.06;1759521;79;22171;-57
2022/04/19 02:15:47;;;;;;;42.03;19.42;;;;;;;2.79;71.58;97520.89;1743932;81;20884;-56
2022/04/19 02:18:13;;;;;;;62.48;31.77;;;;;;;2.84;71.20;97522.33;1737549;81;20912;-57
2022/04/19 02:20:39;;;;;;;51.48;22.58;;;;;;;2.83;71.10;97520.72;1738236;82;20972;-57
2022/04/19 02:23:05;;;;;;;26.50;15.60;;;;;;;2.82;71.27;97520.44;1737635;81;21071;-56
2022/04/19 02:25:31;;;;;;;30.88;13.95;;;;;;;2.75;71.34;97515.23;1738852;81;21565;-57
2022/04/19 02:27:57;;;;;;;32.23;16.48;;;;;;;2.73;71.85;97515.97;1745288;79;20931;-57
2022/04/19 02:30:23;;;;;;;44.08;18.35;;;;;;;2.76;72.42;97514.70;1744623;81;21015;-57
2022/04/19 02:32:50;;;;;;;43.00;19.05;;;;;;;2.71;71.51;97502.03;1738980;82;20982;-57
2022/04/19 02:35:18;;;;;;;35.45;17.07;;;;;;;2.71;71.51;97502.03;1746259;81;21008;-56
2022/04/19 02:37:50;;;;;;;33.48;16.73;;;;;;;2.74;73.12;97510.13;1759455;81;21187;-57
2022/04/19 02:40:19;;;;;;;30.25;14.63;;;;;;;2.76;72.58;97507.48;1752363;81;21048;-56
2022/04/19 02:42:46;;;;;;;31.85;16.23;;;;;;;2.78;72.59;97500.55;1754976;81;21035;-57
2022/04/19 02:45:12;;;;;;;28.07;14.15;;;;;;;2.77;73.22;97502.41;1751958;79;21008;-57
2022/04/19 02:47:41;;;;;;;34.55;14.73;;;;;;;2.79;72.83;97502.16;1762361;81;22075;-57
2022/04/19 02:50:08;;;;;;;24.27;13.25;;;;;;;2.80;73.03;97500.58;1738465;82;21828;-57
2022/04/19 02:52:34;;;;;;;26.87;13.25;;;;;;;2.80;72.93;97505.12;1739091;81;21475;-56
2022/04/19 02:55:00;;;;;;;25.70;14.70;;;;;;;2.77;74.13;97501.61;1752419;81;20850;-57
2022/04/19 02:57:26;;;;;;;28.45;15.10;;;;;;;2.79;73.21;97501.64;1752568;81;21044;-57
2022/04/19 02:59:53;;;;;;;30.15;16.35;;;;;;;2.83;73.01;97507.33;1759515;81;21043;-56
2022/04/19 03:02:20;;;;;;;26.17;15.18;;;;;;;2.85;73.53;97503.88;1745913;81;21599;-57
2022/04/19 03:04:46;;;;;;;34.70;16.70;;;;;;;2.85;74.50;97503.08;1751928;81;20997;-56
2022/04/19 03:07:14;;;;;;;33.25;16.67;;;;;;;2.86;74.24;97502.83;1752718;81;21788;-56
2022/04/19 03:09:41;;;;;;;42.62;22.58;;;;;;;2.85;74.87;97506.55;1752215;81;21009;-56
2022/04/19 03:12:14;;;;;;;47.10;25.15;;;;;;;2.82;73.31;97501.70;1752701;81;21410;-57
2022/04/19 03:14:37;;;;;;;52.50;25.27;;;;;;;2.79;73.89;97510.19;1747455;81;21776;-57
2022/04/19 03:17:03;;;;;;;35.98;21.00;;;;;;;2.74;74.48;97506.92;1738283;82;21000;-56
2022/04/19 03:19:29;;;;;;;32.75;16.05;;;;;;;2.72;75.06;97504.18;1750603;81;20981;-57
2022/04/19 03:21:55;;;;;;;30.50;15.75;;;;;;;2.71;74.50;97506.05;1744907;81;20865;-57
2022/04/19 03:29:52;;;;;;;29.00;14.05;;;;;;;2.77;72.91;97499.73;1751916;79;21039;-57
2022/04/19 03:32:19;;;;;;;26.93;14.87;;;;;;;2.65;72.80;97496.83;1748886;81;20969;-57
2022/04/19 03:34:46;;;;;;;34.48;18.48;;;;;;;2.55;73.17;97497.47;1769083;79;21051;-56
2022/04/19 03:37:12;;;;;;;29.72;15.10;;;;;;;2.58;73.21;97501.02;1756780;81;21016;-57
2022/04/19 03:39:38;;;;;;;39.15;18.50;;;;;;;2.64;73.73;97498.70;1753254;81;21539;-56
2022/04/19 03:42:08;;;;;;;30.10;15.00;;;;;;;2.69;74.20;97499.33;1752620;81;20881;-57
2022/04/19 03:44:32;;;;;;;25.68;13.45;;;;;;;2.69;74.10;97496.12;1752239;81;22008;-57
2022/04/19 03:47:10;;;;;;;36.75;15.15;;;;;;;2.71;73.47;97497.21;1744617;81;20879;-57
2022/04/19 03:49:37;;;;;;;29.57;14.00;;;;;;;2.70;74.39;97497.73;1737999;82;20949;-56
2022/04/19 03:52:04;;;;;;;28.30;14.43;;;;;;;2.69;75.31;97496.65;1747879;81;21457;-57
2022/04/19 03:54:34;;;;;;;27.42;14.07;;;;;;;2.69;75.31;97493.97;1759429;79;21444;-57
2022/04/19 03:56:58;;;;;;;28.32;14.25;;;;;;;2.72;74.60;97492.95;1746516;81;21059;-57
2022/04/19 03:59:24;;;;;;;32.38;14.75;;;;;;;2.70;75.58;97494.25;1752416;81;20857;-56
2022/04/19 04:01:50;;;;;;;27.60;13.83;;;;;;;2.70;74.74;97492.92;1762091;81;20988;-57
2022/04/19 04:04:16;;;;;;;31.52;13.13;;;;;;;2.70;73.90;97496.93;1744698;81;21444;-57
2022/04/19 04:06:42;;;;;;;30.08;13.85;;;;;;;2.70;73.36;97491.05;1738594;81;20888;-56
2022/04/19 04:09:08;;;;;;;31.00;15.83;;;;;;;2.68;74.21;97493.16;1737450;81;20955;-56
2022/04/19 04:11:34;;;;;;;34.03;17.87;;;;;;;2.71;73.80;97492.67;1737540;81;20943;-56
2022/04/19 04:14:00;;;;;;;27.52;14.05;;;;;;;2.76;72.91;97494.11;1739305;81;20880;-56
2022/04/19 04:16:25;;;;;;;25.88;12.93;;;;;;;2.73;73.91;97489.22;1752795;81;21457;-56
2022/04/19 04:18:51;;;;;;;20.32;11.78;;;;;;;2.74;73.80;97492.73;1752358;81;21003;-57
2022/04/19 04:21:17;;;;;;;21.42;12.65;;;;;;;2.70;72.82;97492.39;1752605;81;20885;-57
2022/04/19 04:23:43;;;;;;;23.70;12.25;;;;;;;2.70;72.61;97499.08;1752358;81;20920;-57
2022/04/19 04:26:09;;;;;;;23.22;12.68;;;;;;;2.68;73.05;97491.02;1752613;81;20858;-57
2022/04/19 04:28:35;;;;;;;26.62;13.93;;;;;;;2.69;73.14;97493.45;1759825;79;22040;-56
2022/04/19 04:31:01;;;;;;;34.63;17.70;;;;;;;2.69;72.90;97484.61;1762913;81;20878;-56
2022/04/19 04:33:27;;;;;;;29.30;13.80;;;;;;;2.68;73.03;97488.34;1752465;81;21568;-57
2022/04/19 04:35:52;;;;;;;25.77;15.70;;;;;;;2.66;73.03;97492.60;1752541;81;20940;-57
2022/04/19 04:38:18;;;;;;;31.23;15.53;;;;;;;2.69;73.87;97495.31;1743326;79;20943;-56
2022/04/19 04:40:44;;;;;;;24.35;13.75;;;;;;;2.78;73.24;97492.52;1756609;81;21515;-57
2022/04/19 04:43:10;;;;;;;31.15;17.15;;;;;;;2.83;74.76;97493.95;1758275;79;21524;-56
2022/04/19 04:45:36;;;;;;;30.35;14.58;;;;;;;2.95;73.64;97489.32;1746907;81;20968;-57
2022/04/19 04:50:46;;;;;;;35.73;18.73;;;;;;;3.13;72.93;97487.45;1759599;81;20987;-56
2022/04/19 04:53:12;;;;;;;33.18;17.52;;;;;;;3.20;72.34;97484.08;1738043;81;21538;-57
2022/04/19 04:55:38;;;;;;;35.50;19.07;;;;;;;3.23;72.08;97483.58;1738892;81;20880;-56
2022/04/19 04:58:04;;;;;;;35.80;18.87;;;;;;;3.20;72.10;97480.06;1744236;81;21138;-57
2022/04/19 05:00:30;;;;;;;29.65;15.98;;;;;;;3.25;72.05;97473.45;1747396;81;20873;-56
2022/04/19 05:02:56;;;;;;;26.48;15.48;;;;;;;3.31;72.00;97474.59;1743818;81;21070;-57
2022/04/19 05:05:22;;;;;;;32.55;16.00;;;;;;;3.34;71.80;97471.98;1749899;81;21231;-56
2022/04/19 05:07:47;;;;;;;35.58;21.52;;;;;;;3.39;71.77;97478.20;1751702;81;20944;-57
2022/04/19 05:10:14;;;;;;;35.30;23.47;;;;;;;3.40;71.71;97478.48;1731549;81;21067;-56
2022/04/19 05:12:40;;;;;;;43.65;20.37;;;;;;;3.47;71.82;97469.46;1750737;81;21409;-57
2022/04/19 05:15:08;;;;;;;38.33;18.95;;;;;;;3.53;72.29;97471.97;1742722;81;21019;-57
2022/04/19 05:17:34;;;;;;;36.73;17.57;;;;;;;3.56;72.49;97473.33;1750026;81;22271;-56
2022/04/19 05:20:00;;;;;;;35.40;17.62;;;;;;;3.65;72.76;97473.99;1760294;81;21040;-56
2022/04/19 05:22:26;;;;;;;39.13;18.75;;;;;;;3.75;72.43;97477.33;1744422;81;20849;-56
2022/04/19 05:24:52;;;;;;;34.55;16.30;;;;;;;3.84;72.23;97469.13;1750235;81;20949;-57
2022/04/19 05:27:18;;;;;;;37.53;19.10;;;;;;;3.95;72.03;97471.42;1743540;81;21413;-57
2022/04/19 05:29:44;;;;;;;30.62;18.48;;;;;;;4.01;71.70;97466.38;1741180;81;21120;-57
2022/04/19 05:32:10;;;;;;;46.25;21.35;;;;;;;4.08;71.77;97464.85;1742924;81;22506;-56
2022/04/19 05:34:36;;;;;;;27.80;18.62;;;;;;;4.18;71.57;97464.95;1751129;80;20928;-56
2022/04/19 05:37:02;;;;;;;45.05;22.70;;;;;;;4.35;71.43;97463.53;1756351;81;21472;-57
2022/04/19 05:39:28;;;;;;;42.67;20.97;;;;;;;4.35;71.43;97463.53;1758467;79;21003;-56
2022/04/19 05:41:54;;;;;;;29.18;16.62;;;;;;;4.46;70.67;97461.25;1746942;81;21486;-57
2022/04/19 05:44:21;;;;;;;24.35;12.70;;;;;;;4.47;70.13;97460.98;1734921;81;20940;-57
2022/04/19 05:46:47;;;;;;;24.63;14.43;;;;;;;4.47;70.13;97460.98;1753053;81;21039;-57
2022/04/19 05:49:13;;;;;;;34.00;17.95;;;;;;;4.58;69.59;97467.25;1745790;81;21472;-57
2022/04/19 05:51:40;;;;;;;30.23;15.38;;;;;;;4.66;69.17;97465.98;1759659;81;20893;-56
2022/04/19 05:54:06;;;;;;;28.55;15.55;;;;;;;4.72;69.08;97464.44;1757368;81;21551;-56
2022/04/19 05:56:33;;;;;;;37.40;21.33;;;;;;;4.84;68.98;97454.05;1760178;81;20904;-57
2022/04/19 05:58:59;;;;;;;33.20;17.65;;;;;;;4.98;68.52;97460.08;1768590;79;21019;-56
2022/04/19 06:04:51;;;;;;;31.48;15.30;;;;;;;5.11;68.21;97450.76;1737708;82;20964;-56
2022/04/19 06:06:39;;;;;;;25.12;13.58;;;;;;;5.22;67.21;97446.28;1745447;81;21425;-57
2022/04/19 06:09:05;;;;;;;50.78;18.15;;;;;;;5.37;67.96;97443.67;1752352;81;21489;-57
2022/04/19 06:11:30;;;;;;;24.98;13.72;;;;;;;5.57;66.84;97444.34;1752564;81;20889;-57
2022/04/19 06:13:56;;;;;;;22.42;12.93;;;;;;;5.68;66.77;97447.34;1735476;80;20920;-57
2022/04/19 06:16:22;;;;;;;18.23;10.88;;;;;;;5.89;67.11;97443.65;1737066;80;20951;-57
2022/04/19 06:18:48;;;;;;;25.12;13.05;;;;;;;6.16;66.09;97445.41;1735854;82;22229;-57
2022/04/19 06:21:14;;;;;;;16.32;9.95;;;;;;;6.16;64.11;97446.22;1751960;80;21028;-57
2022/04/19 06:23:40;;;;;;;15.32;8.55;;;;;;;6.19;63.38;97437.60;1744328;79;20972;-57
2022/04/19 06:26:06;;;;;;;25.05;9.80;;;;;;;6.51;63.25;97433.91;1743531;80;20897;-57
2022/04/19 06:28:32;;;;;;;15.70;9.68;;;;;;;6.62;63.17;97441.45;1746264;80;21528;-57
2022/04/19 06:30:58;;;;;;;19.20;10.50;;;;;;;6.88;62.84;97436.88;1755984;80;21169;-57
2022/04/19 06:33:23;;;;;;;17.95;10.75;;;;;;;7.11;61.86;97433.64;1753264;80;21506;-57
2022/04/19 06:35:49;;;;;;;15.78;8.98;;;;;;;7.45;62.27;97433.04;1749856;80;20917;-57
2022/04/19 06:38:15;;;;;;;18.23;9.73;;;;;;;7.91;61.87;97429.09;1750515;80;21619;-57
2022/04/19 06:40:41;;;;;;;26.77;12.73;;;;;;;8.43;60.79;97434.52;1748714;80;20967;-57
2022/04/19 06:43:07;;;;;;;15.53;8.90;;;;;;;8.52;57.37;97427.17;1762989;80;21151;-57
2022/04/19 06:45:33;;;;;;;12.07;7.12;;;;;;;8.40;55.16;97431.03;1737567;81;21525;-57
2022/04/19 06:48:01;;;;;;;12.15;8.13;;;;;;;8.15;52.92;97424.40;1752689;80;21566;-57
2022/04/19 06:50:27;;;;;;;15.80;9.00;;;;;;;8.91;56.26;97423.11;1745677;81;21091;-57
2022/04/19 06:52:53;;;;;;;12.05;7.55;;;;;;;8.91;56.26;97423.11;1750229;79;21013;-57
2022/04/19 06:55:20;;;;;;;15.13;7.17;;;;;;;9.26;56.09;97419.27;1744111;81;21541;-57
2022/04/19 06:57:47;;;;;;;11.78;6.30;;;;;;;9.43;52.18;97420.98;1738175;81;21048;-57
2022/04/19 07:00:15;;;;;;;12.23;7.67;;;;;;;9.24;47.32;97424.16;1749750;80;21043;-57
2022/04/19 07:02:41;;;;;;;14.55;8.35;;;;;;;9.86;48.11;97420.50;1745218;81;21004;-57
2022/04/19 07:05:07;;;;;;;9.83;6.55;;;;;;;10.49;48.73;97426.18;1748739;81;21151;-57
2022/04/19 07:07:33;;;;;;;13.10;7.08;;;;;;;10.07;48.40;97420.23;1744502;81;20981;-57
2022/04/19 07:09:59;;;;;;;10.93;6.00;;;;;;;9.85;50.04;97428.91;1747095;81;20869;-57
2022/04/19 07:12:25;;;;;;;12.82;6.25;;;;;;;9.94;49.38;97431.23;1753986;81;20903;-57
2022/04/19 07:14:51;;;;;;;8.00;5.53;;;;;;;9.65;49.96;97429.93;1747141;81;20904;-58
2022/04/19 07:17:17;;;;;;;10.58;5.17;;;;;;;9.69;48.22;97428.83;1749559;81;21600;-58
2022/04/19 07:28:02;;;;;;;9.28;5.85;;;;;;;8.19;47.59;97440.28;1744875;81;21489;-57
2022/04/19 07:30:29;;;;;;;9.85;4.95;;;;;;;7.75;46.73;97442.37;1740613;82;21481;-57
2022/04/19 07:32:56;;;;;;;9.58;4.80;;;;;;;7.55;47.82;97445.95;1740821;80;21557;-57
2022/04/19 07:35:23;;;;;;;7.70;5.00;;;;;;;7.29;47.36;97440.34;1746974;80;21032;-57
2022/04/19 07:37:49;;;;;;;7.17;4.65;;;;;;;7.12;47.42;97448.72;1739605;81;21430;-57
2022/04/19 07:40:15;;;;;;;7.00;4.53;;;;;;;7.27;47.91;97444.67;1743466;81;20842;-56
2022/04/19 07:42:40;;;;;;;9.25;5.50;;;;;;;7.74;47.51;97445.34;1744580;81;20980;-57
2022/04/19 07:45:09;;;;;;;11.18;5.58;;;;;;;7.89;46.77;97443.95;1744292;80;21515;-57
2022/04/19 07:47:35;;;;;;;9.60;7.50;;;;;;;8.08;48.02;97438.19;1744378;81;21182;-57
2022/04/19 07:50:01;;;;;;;10.18;7.10;;;;;;;10.98;47.50;97439.25;1743390;81;22185;-56
2022/04/19 07:52:28;;;;;;;9.80;5.72;;;;;;;10.98;47.50;97439.25;1758763;81;38253;-57
2022/04/19 07:54:54;;;;;;;11.10;5.58;;;;;;;12.55;45.07;97441.39;1741592;81;21037;-56
2022/04/19 07:57:21;;;;;;;9.95;5.05;;;;;;;13.53;42.46;97427.08;1744559;81;21903;-57
2022/04/19 07:59:47;;;;;;;10.78;6.80;;;;;;;14.45;37.87;97428.05;1747029;81;21121;-58
2022/04/19 08:02:14;;;;;;;26.52;17.80;;;;;;;14.95;36.26;97420.73;1743670;80;21090;-58
2022/04/19 08:04:40;;;;;;;10.58;5.95;;;;;;;15.79;38.23;97425.53;1741005;81;21028;-57
2022/04/19 08:07:06;;;;;;;8.90;4.87;;;;;;;16.55;33.90;97421.09;1732452;81;21067;-58
2022/04/19 08:09:32;;;;;;;10.88;5.65;;;;;;;17.02;34.26;97427.20;1735839;81;21132;-58
2022/04/19 08:11:58;;;;;;;6.50;4.75;;;;;;;16.62;33.27;97426.27;1750855;80;22143;-58
2022/04/19 08:14:24;;;;;;;11.50;5.62;;;;;;;16.73;27.87;97430.80;1749729;80;21044;-58
2022/04/19 08:16:50;;;;;;;8.48;5.28;;;;;;;17.68;29.16;97423.61;1744997;81;21072;-58
2022/04/19 08:19:16;;;;;;;6.08;4.58;;;;;;;17.76;27.84;97422.16;1744071;81;21217;-57
2022/04/19 08:21:42;;;;;;;7.80;5.10;;;;;;;15.91;29.00;97424.06;1732751;82;21181;-58
2022/04/19 08:24:08;;;;;;;7.12;5.12;;;;;;;17.06;28.51;97424.58;1745045;81;20956;-58
2022/04/19 08:26:34;;;;;;;7.92;5.47;;;;;;;18.01;27.62;97414.77;1745155;80;20925;-59
2022/04/19 08:29:00;;;;;;;7.35;5.33;;;;;;;17.22;27.72;97426.13;1741168;81;23091;-58
2022/04/19 08:31:27;;;;;;;9.00;5.35;;;;;;;15.88;30.39;97428.23;1748057;81;20877;-58
2022/04/19 08:33:53;;;;;;;9.40;5.50;;;;;;;17.46;30.62;97426.20;1732520;81;21814;-58
2022/04/19 08:36:19;;;;;;;7.37;5.33;;;;;;;18.57;29.89;97419.64;1744604;81;20933;-58
2022/04/19 08:38:47;;;;;;;10.00;5.97;;;;;;;17.99;29.45;97429.39;1737553;82;21693;-58
2022/04/19 08:41:17;;;;;;;7.27;5.43;;;;;;;16.88;28.29;97432.14;1737508;81;22000;-58
2022/04/19 08:43:45;;;;;;;8.03;5.45;;;;;;;16.22;29.27;97432.72;1739437;82;21106;-58
2022/04/19 08:46:12;;;;;;;9.58;6.00;;;;;;;15.57;30.20;97429.86;1724057;82;21040;-58
2022/04/19 08:48:39;;;;;;;8.40;5.62;;;;;;;13.85;33.21;97436.03;1734170;80;21040;-58
2022/04/19 08:51:05;;;;;;;10.32;5.45;;;;;;;14.61;33.01;97432.44;1745631;82;21083;-58
2022/04/19 08:59:04;;;;;;;9.13;5.60;;;;;;;11.51;38.26;97439.42;1745345;81;21529;-58
2022/04/19 09:01:30;;;;;;;10.08;6.03;;;;;;;10.79;38.05;97447.97;1745175;82;21037;-58
2022/04/19 09:03:56;;;;;;;9.25;6.15;;;;;;;10.41;39.77;97441.73;1740041;82;21680;-58
2022/04/19 09:06:51;;;;;;;10.78;6.35;;;;;;;10.57;39.06;97448.55;1743028;80;21396;-58
2022/04/19 09:09:21;;;;;;;8.45;5.50;;;;;;;11.35;37.61;97444.31;1772128;78;21046;-58
2022/04/19 09:11:48;;;;;;;9.83;5.97;;;;;;;11.51;36.94;97450.27;1689693;83;21165;-58
2022/04/19 09:14:14;;;;;;;11.18;4.78;;;;;;;10.81;38.65;97447.11;1714831;81;21047;-57
2022/04/19 09:16:40;;;;;;;10.30;5.22;;;;;;;10.87;38.50;97450.01;1768128;80;21613;-58
2022/04/19 09:19:09;;;;;;;10.80;6.17;;;;;;;11.04;38.41;97453.53;1751761;80;21043;-57
2022/04/19 09:21:39;;;;;;;;;;;;;;;11.13;38.47;97453.66;1769286;79;21012;-58
2022/04/19 09:24:18;;;;;;;13.70;5.67;;;;;;;11.16;39.30;97455.22;1752483;80;21490;-57
2022/04/19 09:26:50;;;;;;;10.32;6.40;;;;;;;11.05;40.12;97456.50;1745392;80;20973;-57
2022/04/19 09:29:25;;;;;;;10.65;7.62;;;;;;;11.08;39.98;97455.09;1739005;80;20975;-58
2022/04/19 09:32:01;;;;;;;9.38;6.60;;;;;;;11.00;40.39;97454.66;1765536;79;21052;-58
2022/04/19 09:34:30;;;;;;;9.18;6.22;;;;;;;10.87;40.70;97463.56;1758194;80;21123;-57
2022/04/19 09:37:14;;;;;;;12.55;8.10;;;;;;;10.62;41.28;97460.68;1728072;80;21091;-58
2022/04/19 09:39:41;;;;;;;15.43;8.23;;;;;;;10.44;41.32;97466.35;1762427;80;20994;-58
2022/04/19 09:42:14;;;;;;;15.10;11.80;;;;;;;10.19;42.29;97466.66;1750918;80;21111;-58
2022/04/19 09:44:44;;;;;;;15.60;12.37;;;;;;;10.32;42.60;97474.08;1754040;80;21041;-58
2022/04/19 09:47:12;;;;;;;11.90;8.40;;;;;;;11.84;41.43;97474.92;1757212;80;21033;-58
2022/04/19 09:49:53;;;;;;;7.92;6.28;;;;;;;14.03;38.39;97474.47;1743273;80;21158;-58
2022/04/19 09:52:27;;;;;;;9.48;5.17;;;;;;;15.44;36.79;97473.16;1742250;81;21469;-58
2022/04/19 09:55:08;;;;;;;12.68;6.62;;;;;;;15.93;35.90;97467.67;1746781;80;21029;-57
2022/04/19 09:57:36;;;;;;;10.48;6.37;;;;;;;15.83;35.75;97469.41;1748303;80;21072;-57
2022/04/19 10:00:05;;;;;;;9.55;5.75;;;;;;;14.78;36.45;97471.19;1749293;80;21003;-57
2022/04/19 10:08:20;;;;;;;11.05;6.87;;;;;;;12.74;37.92;97471.72;1750092;81;21499;-58
2022/04/19 10:10:51;;;;;;;8.75;6.17;;;;;;;11.26;38.97;97479.45;1768527;80;21502;-58
2022/04/19 10:13:18;;;;;;;12.75;6.42;;;;;;;10.97;39.28;97485.08;1745421;80;20982;-58
2022/04/19 10:15:44;;;;;;;11.22;7.37;;;;;;;10.76;39.65;97482.41;1732676;81;23143;-57
2022/04/19 10:18:10;;;;;;;12.90;8.18;;;;;;;10.54;39.99;97483.01;1744951;81;20902;-58
2022/04/19 10:20:44;;;;;;;18.17;7.45;;;;;;;10.22;40.56;97483.69;1744981;81;20977;-58
2022/04/19 10:23:10;;;;;;;17.23;6.87;;;;;;;10.28;40.67;97492.57;1759134;80;22175;-57
2022/04/19 10:25:40;;;;;;;13.45;8.13;;;;;;;10.23;40.70;97489.36;1768568;80;20893;-57
2022/04/19 10:28:08;;;;;;;10.28;7.30;;;;;;;9.97;41.52;97505.62;1741394;81;21046;-58
2022/04/19 10:30:37;;;;;;;11.05;5.62;;;;;;;9.49;44.46;97500.98;1751979;81;21080;-58
2022/04/19 10:33:40;;;;;;;8.18;5.62;;;;;;;9.08;46.83;97509.17;1742740;81;21033;-57
2022/04/19 10:36:32;;;;;;;9.65;4.62;;;;;;;8.74;49.25;97504.00;1685330;83;21141;-57
2022/04/19 10:39:19;;;;;;;7.50;4.40;;;;;;;8.45;51.98;97507.13;1744138;81;20968;-58
2022/04/19 10:42:02;;;;;;;8.90;5.42;;;;;;;7.95;53.51;97518.39;1755709;81;21165;-58
2022/04/19 10:44:48;;;;;;;10.93;7.17;;;;;;;7.74;54.40;97522.21;1750379;81;21079;-57
2022/04/19 10:47:19;;;;;;;8.05;4.50;;;;;;;7.64;55.40;97519.80;1719678;82;21027;-57
2022/04/19 10:50:04;;;;;;;10.38;5.47;;;;;;;7.72;56.21;97525.19;1742999;81;20977;-58
2022/04/19 10:52:43;;;;;;;10.00;7.30;;;;;;;7.63;56.67;97530.33;1741147;81;21559;-58
2022/04/19 10:55:23;;;;;;;9.38;6.75;;;;;;;7.55;58.01;97540.85;1735969;81;21744;-58
2022/04/19 10:58:09;;;;;;;15.48;10.48;;;;;;;7.48;57.67;97538.97;1738863;81;21001;-57
2022/04/19 11:00:48;;;;;;;11.97;8.83;;;;;;;7.58;58.89;97538.95;1737283;81;21079;-56
2022/04/19 11:03:17;;;;;;;14.05;10.45;;;;;;;7.79;57.55;97536.50;1739783;81;21466;-58
2022/04/19 11:05:57;;;;;;;12.18;9.10;;;;;;;8.04;57.41;97538.33;1752526;81;21024;-57
2022/04/19 11:08:33;;;;;;;18.20;12.13;;;;;;;8.38;56.60;97539.05;1735553;81;21161;-56
2022/04/19 11:11:05;;;;;;;20.68;10.43;;;;;;;8.78;55.80;97539.35;1746588;81;21453;-58
2022/04/19 11:13:36;;;;;;;20.27;11.30;;;;;;;9.19;54.35;97539.09;1737249;81;21083;-57
2022/04/19 11:16:08;;;;;;;16.62;9.23;;;;;;;9.45;53.45;97533.73;1744376;81;21133;-57
2022/04/19 11:18:40;;;;;;;17.00;9.90;;;;;;;9.41;53.30;97540.81;1740815;81;20979;-57
2022/04/19 11:21:08;;;;;;;11.53;8.43;;;;;;;9.60;52.30;97537.66;1729419;81;21157;-58
2022/04/19 11:23:48;;;;;;;22.15;13.18;;;;;;;9.67;52.01;97550.05;1742973;80;21111;-57
2022/04/19 11:26:34;;;;;;;23.18;13.03;;;;;;;9.77;51.16;97532.36;1745284;81;20973;-57
2022/04/19 11:29:16;;;;;;;19.37;10.30;;;;;;;9.99;50.29;97534.00;1742992;81;20991;-58
2022/04/19 11:31:51;;;;;;;17.02;9.53;;;;;;;10.09;49.90;97533.11;1751007;81;21034;-58
2022/04/19 11:34:17;;;;;;;11.08;7.62;;;;;;;10.38;48.80;97530.35;1738938;81;21199;-58
2022/04/19 11:36:43;;;;;;;15.32;8.15;;;;;;;10.37;48.51;97528.19;1740505;81;21563;-58
2022/04/19 11:46:44;;;;;;;12.82;8.05;;;;;;;10.49;48.30;97522.89;1752742;80;21055;-58
2022/04/19 11:47:05;;;;;;;8.85;6.78;;;;;;;10.57;47.11;97533.89;1646475;81;21532;-58
2022/04/19 11:49:34;;;;;;;8.95;7.08;;;;;;;10.71;46.43;97528.56;1751545;79;20977;-57
2022/04/19 11:52:11;;;;;;;20.08;10.58;;;;;;;10.68;45.80;97537.27;1740972;81;25928;-57
2022/04/19 11:54:37;;;;;;;12.30;8.78;;;;;;;10.69;45.83;97526.70;1738685;81;21425;-58
2022/04/19 11:57:08;;;;;;;12.53;9.03;;;;;;;10.91;46.37;97521.48;1752061;80;20898;-58
2022/04/19 11:59:41;;;;;;;10.10;6.42;;;;;;;11.19;45.95;97527.84;1731433;80;21801;-58
2022/04/19 12:02:19;;;;;;;9.33;6.78;;;;;;;11.03;46.68;97529.20;1731738;81;21087;-58
2022/04/19 12:04:54;;;;;;;15.07;7.60;;;;;;;10.71;48.67;97533.98;1730766;82;21024;-58
2022/04/19 12:07:20;;;;;;;10.98;7.33;;;;;;;10.62;48.55;97533.83;1736940;82;21041;-58
2022/04/19 12:09:49;;;;;;;7.78;5.60;;;;;;;9.76;51.80;97535.62;1736939;81;21052;-57
2022/04/19 12:12:16;;;;;;;11.40;6.22;;;;;;;9.83;52.11;97537.99;1729838;82;21330;-57